Date,TemperatureHighF,TemperatureAvgF,TemperatureLowF,DewpointHighF,DewpointAvgF,DewpointLowF,HumidityHigh,HumidityAvg,HumidityLow,PressureMaxIn,PressureMinIn,WindSpeedMaxMPH,WindSpeedAvgMPH,GustSpeedMaxMPH,PrecipitationSumIn
2013-1-1,47.0,45.7,43.0,42.0,39.8,36.0,82,78,74,30.04,29.72,0,-999,0,0.00
2013-1-2,48.0,46.7,45.0,45.0,42.4,39.0,90,85,78,30.12,30.08,0,-999,0,0.00
2013-1-4,54.0,50.4,48.0,50.0,48.2,46.0,100,92,75,30.58,30.42,0,-999,0,0.00
2013-1-5,55.0,49.9,45.0,51.0,48.4,45.0,100,95,75,30.49,30.34,0,-999,0,0.00
2013-1-6,50.0,48.4,47.0,49.0,48.0,46.0,100,98,96,30.47,30.40,0,-999,0,0.00
2013-1-9,47.0,44.9,41.0,43.0,39.9,38.0,100,83,74,30.23,30.09,0,-999,0,0.00
2013-1-10,48.0,44.0,38.0,45.0,40.6,35.0,96,87,75,30.08,29.95,0,-999,0,0.00
2013-1-11,47.0,44.9,41.0,47.0,41.2,37.0,100,87,71,30.07,29.83,0,-999,0,0.00
2013-1-12,45.0,42.5,40.0,41.0,35.0,31.0,88,74,63,30.08,29.85,0,-999,0,0.00
2013-1-13,43.0,43.0,43.0,32.0,31.6,31.0,64,64,63,30.08,30.08,0,-999,0,0.00
2013-1-14,44.0,42.5,40.0,38.0,35.6,34.0,88,76,66,29.91,29.70,0,-999,0,0.00
2013-1-15,44.0,39.9,36.0,38.0,35.3,34.0,95,83,74,29.93,29.76,0,-999,0,0.00
2013-1-16,43.0,43.0,43.0,37.0,36.5,36.0,78,78,77,29.76,29.75,0,-999,0,0.00
2013-1-19,39.0,37.2,35.0,31.0,29.7,28.0,78,74,67,29.56,29.50,0,-999,0,0.00
2013-1-21,42.0,39.4,36.0,38.0,33.6,29.0,93,79,62,29.37,29.34,0,-999,0,0.00
2013-1-22,42.0,39.2,36.0,38.0,36.1,35.0,93,87,76,29.62,29.35,0,-999,0,0.00
2013-1-23,40.0,38.8,35.0,36.0,34.1,32.0,91,83,77,29.78,29.70,0,-999,0,0.00
2013-1-24,45.0,41.7,39.0,39.0,35.1,30.0,86,77,69,30.07,29.86,0,-999,0,0.00
2013-1-25,46.0,41.5,36.0,43.0,38.7,33.0,92,89,85,30.01,29.79,0,-999,0,0.00
2013-1-27,45.0,44.1,44.0,36.0,34.3,33.0,72,67,64,29.31,29.28,0,-999,0,0.00
2013-1-28,52.0,48.0,43.0,51.0,42.6,33.0,100,82,66,29.70,29.36,0,-999,0,0.00
2013-1-29,51.0,50.3,49.0,49.0,46.9,46.0,97,89,83,29.58,29.54,0,-999,0,0.00
2013-1-30,51.0,48.8,46.0,46.0,40.9,37.0,97,74,61,29.92,29.61,0,-999,0,0.00
2013-1-31,51.0,48.7,46.0,49.0,43.9,40.0,98,83,70,29.90,29.61,0,-999,0,0.00